createdAt,value
2023-02-07T00:00:41.198Z,43.63
2023-02-07T00:03:44.723Z,34.35
2023-02-07T00:06:47.512Z,29.65
2023-02-07T00:09:50.954Z,27.35
2023-02-07T00:12:54.116Z,34.13
2023-02-07T00:15:56.957Z,38.00
2023-02-07T00:19:00.464Z,37.25
2023-02-07T00:22:03.920Z,43.85
2023-02-07T00:25:06.862Z,41.45
2023-02-07T00:28:12.794Z,35.43
2023-02-07T00:31:19.466Z,37.77
2023-02-07T00:34:22.311Z,39.33
2023-02-07T00:37:25.046Z,40.45
2023-02-07T00:40:28.780Z,35.55
2023-02-07T00:43:31.975Z,44.03
2023-02-07T00:46:35.929Z,43.27
2023-02-07T00:49:38.765Z,49.35
2023-02-07T00:52:44.514Z,43.50
2023-02-07T00:55:47.442Z,45.10
2023-02-07T00:58:51.076Z,49.57
2023-02-07T01:01:53.979Z,47.37
2023-02-07T01:04:56.968Z,33.92
2023-02-07T01:07:59.967Z,38.30
2023-02-07T01:11:09.276Z,44.88
2023-02-07T01:14:13.093Z,36.30
2023-02-07T01:17:18.859Z,36.20
2023-02-07T01:20:25.162Z,31.60
2023-02-07T01:23:28.010Z,34.72
2023-02-07T01:26:30.961Z,41.55
2023-02-07T01:29:37.051Z,38.13
2023-02-07T01:32:43.035Z,35.97
2023-02-07T01:35:47.339Z,40.25
2023-02-07T01:38:52.403Z,38.60
2023-02-07T01:41:55.273Z,37.00
2023-02-07T01:45:16.902Z,41.50
2023-02-07T01:48:31.816Z,42.83
2023-02-07T01:51:35.650Z,36.25
2023-02-07T01:54:38.835Z,39.60
2023-02-07T01:57:41.920Z,37.83
2023-02-07T02:00:45.506Z,39.10
2023-02-07T02:03:50.057Z,32.63
2023-02-07T02:06:53.351Z,36.45
2023-02-07T02:09:56.189Z,35.92
2023-02-07T02:13:06.543Z,45.10
2023-02-07T02:16:15.486Z,38.20
2023-02-07T02:20:06.313Z,40.20
2023-02-07T02:23:20.977Z,38.95
2023-02-07T02:26:35.068Z,39.80
2023-02-07T02:29:49.041Z,35.38
2023-02-07T02:33:10.406Z,40.73
2023-02-07T02:36:35.163Z,40.73
2023-02-07T02:40:17.141Z,40.03
2023-02-07T02:43:36.139Z,39.20
2023-02-07T02:46:40.458Z,40.53
2023-02-07T02:49:44.795Z,40.50
2023-02-07T02:52:50.903Z,41.43
2023-02-07T02:56:15.822Z,41.10
2023-02-07T02:59:49.754Z,44.60
2023-02-07T03:03:16.100Z,45.70
2023-02-07T03:06:34.097Z,45.57
2023-02-07T03:10:09.185Z,40.67
2023-02-07T03:13:16.360Z,38.33
2023-02-07T03:16:34.340Z,39.05
2023-02-07T03:19:50.255Z,40.47
2023-02-07T03:22:53.852Z,40.57
2023-02-07T03:25:58.792Z,39.87
2023-02-07T03:29:04.086Z,32.00
2023-02-07T03:32:11.323Z,47.78
2023-02-07T03:35:26.329Z,37.20
2023-02-07T03:38:29.255Z,44.60
2023-02-07T03:41:42.685Z,42.63
2023-02-07T03:44:45.859Z,44.33
2023-02-07T03:47:49.437Z,37.22
2023-02-07T03:50:53.196Z,37.97
2023-02-07T03:53:59.369Z,36.17
2023-02-07T03:57:02.734Z,41.70
2023-02-07T04:00:07.314Z,36.88
2023-02-07T04:03:18.794Z,42.15
2023-02-07T04:06:23.211Z,42.28
2023-02-07T04:09:28.829Z,40.97
2023-02-07T04:12:34.584Z,42.50
2023-02-07T04:15:38.401Z,42.33
2023-02-07T04:18:41.548Z,36.63
2023-02-07T04:21:48.166Z,38.38
2023-02-07T04:24:51.021Z,34.90
2023-02-07T04:27:56.887Z,48.20
2023-02-07T04:30:59.865Z,39.28
2023-02-07T04:34:02.690Z,41.08
2023-02-07T04:37:05.659Z,37.92
2023-02-07T04:40:08.883Z,42.53
2023-02-07T04:43:23.640Z,34.27
2023-02-07T04:46:30.524Z,40.63
2023-02-07T04:49:34.559Z,44.30
2023-02-07T04:52:37.905Z,39.58
2023-02-07T04:55:40.910Z,52.50
2023-02-07T04:58:44.133Z,45.27
2023-02-07T05:01:47.466Z,39.53
2023-02-07T05:04:50.383Z,42.78
2023-02-07T05:07:53.349Z,36.03
2023-02-07T05:11:02.479Z,38.50
2023-02-07T05:14:05.333Z,40.87
2023-02-07T05:17:12.002Z,40.95
2023-02-07T05:20:14.937Z,41.72
2023-02-07T05:23:18.355Z,52.72
2023-02-07T05:26:21.214Z,39.93
2023-02-07T05:29:24.238Z,35.07
2023-02-07T05:32:45.583Z,38.20
2023-02-07T05:35:48.579Z,35.33
2023-02-07T05:38:54.568Z,36.55
2023-02-07T05:41:57.298Z,37.20
2023-02-07T05:45:00.251Z,39.23
2023-02-07T05:48:09.176Z,36.60
2023-02-07T05:51:12.985Z,37.63
2023-02-07T05:54:18.765Z,39.78
2023-02-07T05:57:21.589Z,29.47
2023-02-07T06:00:24.640Z,35.63
2023-02-07T06:03:33.730Z,33.63
2023-02-07T06:06:39.493Z,39.40
2023-02-07T06:09:45.239Z,36.38
2023-02-07T06:12:48.049Z,34.10
2023-02-07T06:15:50.913Z,39.17
2023-02-07T06:18:56.962Z,31.70
2023-02-07T06:22:02.748Z,34.90
2023-02-07T06:25:05.871Z,38.97
2023-02-07T06:28:09.157Z,34.57
2023-02-07T06:31:13.004Z,32.47
2023-02-07T06:34:19.115Z,33.22
2023-02-07T06:37:21.831Z,118.60
2023-02-07T06:40:25.366Z,65.93
2023-02-07T06:43:28.134Z,67.17
2023-02-07T06:46:31.526Z,211.70
2023-02-07T06:49:35.059Z,47.58
2023-02-07T06:52:37.970Z,29.75
2023-02-07T06:55:41.019Z,34.55
2023-02-07T06:58:53.329Z,34.93
2023-02-07T07:02:00.763Z,31.07
2023-02-07T07:05:04.140Z,38.00
2023-02-07T07:08:07.679Z,33.88
2023-02-07T07:11:10.575Z,88.43
2023-02-07T07:14:13.396Z,39.17
2023-02-07T07:17:19.355Z,95.13
2023-02-07T07:20:23.529Z,103.43
2023-02-07T07:23:27.073Z,38.35
2023-02-07T07:26:47.861Z,38.05
2023-02-07T07:29:54.987Z,40.73
2023-02-07T07:32:57.759Z,155.73
2023-02-07T07:36:01.763Z,54.15
2023-02-07T07:39:05.466Z,39.05
2023-02-07T07:42:08.397Z,49.35
2023-02-07T07:45:11.267Z,44.83
2023-02-07T07:48:17.407Z,40.03
2023-02-07T07:51:20.471Z,47.13
2023-02-07T07:54:23.622Z,43.63
2023-02-07T07:57:32.788Z,48.70
2023-02-07T08:00:39.430Z,48.20
2023-02-07T08:03:42.424Z,56.63
2023-02-07T08:06:46.079Z,44.72
2023-02-07T08:09:48.904Z,43.42
2023-02-07T08:12:51.769Z,45.20
2023-02-07T08:15:55.503Z,48.20
2023-02-07T08:18:58.367Z,44.27
2023-02-07T08:22:01.217Z,41.22
2023-02-07T08:25:13.445Z,48.63
2023-02-07T08:28:20.188Z,43.60
2023-02-07T08:31:23.467Z,46.17
2023-02-07T08:34:29.131Z,41.70
2023-02-07T08:37:31.994Z,42.13
2023-02-07T08:40:35.536Z,47.17
2023-02-07T08:43:39.502Z,47.90
2023-02-07T08:46:42.870Z,42.30
2023-02-07T08:49:45.795Z,49.03
2023-02-07T08:52:48.600Z,46.95
2023-02-07T08:55:52.193Z,56.13
2023-02-07T08:58:55.048Z,43.72
2023-02-07T09:02:07.757Z,53.20
2023-02-07T09:05:12.538Z,48.33
2023-02-07T09:08:15.567Z,42.13
2023-02-07T09:11:18.788Z,42.90
2023-02-07T09:14:22.355Z,56.53
2023-02-07T09:17:25.333Z,47.57
2023-02-07T09:20:29.854Z,49.93
2023-02-07T09:23:37.209Z,50.00
2023-02-07T09:26:45.862Z,438.77
2023-02-07T09:29:49.222Z,609.95
2023-02-07T09:32:53.449Z,48.60
2023-02-07T09:35:59.469Z,46.13
2023-02-07T09:39:03.950Z,46.65
2023-02-07T09:42:43.721Z,43.08
2023-02-07T09:45:49.283Z,41.63
2023-02-07T09:49:18.452Z,110.60
2023-02-07T09:52:31.772Z,43.43
2023-02-07T09:55:50.460Z,96.63
2023-02-07T09:59:24.180Z,46.60
2023-02-07T10:02:34.964Z,42.53
2023-02-07T10:05:46.352Z,42.40
2023-02-07T10:08:52.750Z,96.07
2023-02-07T10:12:28.801Z,84.68
2023-02-07T10:15:43.382Z,44.50
2023-02-07T10:19:09.957Z,43.33
2023-02-07T10:22:42.069Z,40.00
2023-02-07T10:26:12.550Z,49.13
2023-02-07T10:29:26.367Z,39.20
2023-02-07T10:32:34.129Z,39.97
2023-02-07T10:35:37.555Z,38.58
2023-02-07T10:38:50.257Z,36.13
2023-02-07T10:42:00.220Z,34.03
2023-02-07T10:45:05.580Z,42.13
2023-02-07T10:48:20.070Z,46.33
2023-02-07T10:51:36.977Z,38.90
2023-02-07T10:54:54.762Z,37.37
2023-02-07T10:58:08.538Z,43.90
2023-02-07T11:01:24.195Z,40.65
2023-02-07T11:04:38.980Z,40.10
2023-02-07T11:07:47.940Z,37.75
2023-02-07T11:10:56.078Z,40.43
2023-02-07T11:14:05.446Z,41.00
2023-02-07T11:17:08.365Z,41.72
2023-02-07T11:20:21.443Z,41.58
2023-02-07T11:23:24.498Z,36.13
2023-02-07T11:26:32.072Z,39.07
2023-02-07T11:29:41.807Z,35.30
2023-02-07T11:32:58.143Z,34.55
2023-02-07T11:36:12.762Z,31.95
2023-02-07T11:39:19.798Z,36.00
2023-02-07T11:42:26.239Z,32.83
2023-02-07T11:45:34.713Z,29.50
2023-02-07T11:48:40.356Z,34.53
2023-02-07T11:51:46.478Z,32.25
2023-02-07T11:54:53.561Z,28.87
2023-02-07T11:58:07.696Z,35.40
2023-02-07T12:01:18.028Z,31.27
2023-02-07T12:04:28.059Z,31.30
2023-02-07T12:07:39.423Z,33.35
2023-02-07T12:10:46.298Z,32.45
2023-02-07T12:14:02.275Z,31.50
2023-02-07T12:17:10.148Z,29.53
2023-02-07T12:20:39.650Z,31.95
2023-02-07T12:24:01.177Z,35.05
2023-02-07T12:27:16.047Z,30.67
2023-02-07T12:30:39.785Z,31.00
2023-02-07T12:33:49.204Z,31.60
2023-02-07T12:36:56.921Z,32.22
2023-02-07T12:40:21.809Z,31.02
2023-02-07T12:43:27.702Z,26.33
2023-02-07T12:46:50.537Z,29.73
2023-02-07T12:50:02.500Z,25.40
2023-02-07T12:53:22.501Z,25.42
2023-02-07T12:56:36.394Z,26.87
2023-02-07T13:00:06.466Z,21.87
2023-02-07T13:03:42.547Z,32.97
2023-02-07T13:07:15.098Z,31.87
2023-02-07T13:10:41.512Z,25.27
2023-02-07T13:14:05.114Z,20.98
2023-02-07T13:17:32.926Z,24.12
2023-02-07T13:20:51.938Z,23.43
2023-02-07T13:24:01.487Z,23.40
2023-02-07T13:27:08.451Z,22.05
2023-02-07T13:30:17.096Z,25.88
2023-02-07T13:33:39.423Z,21.02
2023-02-07T13:36:49.444Z,25.07
2023-02-07T13:40:06.369Z,25.90
2023-02-07T13:43:21.246Z,22.25
2023-02-07T13:46:45.797Z,22.42
2023-02-07T13:50:12.643Z,26.25
2023-02-07T13:53:37.436Z,22.27
2023-02-07T13:57:15.043Z,23.80
2023-02-07T14:00:21.186Z,21.48
2023-02-07T14:03:33.255Z,24.35
2023-02-07T14:06:41.206Z,22.37
2023-02-07T14:09:48.511Z,21.57
2023-02-07T14:12:54.488Z,23.03
2023-02-07T14:16:01.626Z,28.80
2023-02-07T14:19:04.721Z,22.25
2023-02-07T14:22:30.492Z,21.98
2023-02-07T14:25:36.697Z,25.87
2023-02-07T14:28:39.874Z,50.27
2023-02-07T14:32:22.395Z,22.58
2023-02-07T14:35:28.132Z,27.62
2023-02-07T14:38:38.159Z,36.13
2023-02-07T14:41:43.350Z,23.90
2023-02-07T14:44:50.125Z,281.97
2023-02-07T14:47:53.094Z,41.13
2023-02-07T14:50:56.120Z,24.85
2023-02-07T14:54:23.950Z,21.98
2023-02-07T14:57:36.189Z,25.67
2023-02-07T15:00:45.402Z,27.63
2023-02-07T15:04:06.170Z,21.58
2023-02-07T15:07:13.493Z,20.45
2023-02-07T15:10:27.789Z,32.53
2023-02-07T15:13:34.379Z,23.67
2023-02-07T15:16:40.386Z,18.20
2023-02-07T15:19:43.218Z,19.23
2023-02-07T15:22:50.705Z,16.80
2023-02-07T15:25:53.696Z,18.60
2023-02-07T15:29:02.257Z,18.03
2023-02-07T15:32:24.497Z,19.60
2023-02-07T15:35:30.093Z,19.92
2023-02-07T15:38:33.428Z,37.58
2023-02-07T15:41:39.129Z,38.00
2023-02-07T15:44:56.562Z,30.73
2023-02-07T15:48:03.411Z,26.13
2023-02-07T15:51:11.265Z,30.17
2023-02-07T15:54:16.503Z,37.05
2023-02-07T15:57:26.483Z,29.15
2023-02-07T16:00:32.097Z,34.27
2023-02-07T16:03:37.870Z,36.57
2023-02-07T16:06:55.194Z,35.05
2023-02-07T16:10:24.039Z,32.95
2023-02-07T16:13:26.881Z,34.65
2023-02-07T16:16:36.187Z,32.53
2023-02-07T16:19:46.441Z,28.37
2023-02-07T16:22:50.187Z,28.50
2023-02-07T16:25:53.374Z,30.27
2023-02-07T16:28:56.644Z,30.30
2023-02-07T16:31:59.800Z,32.47
2023-02-07T16:35:02.817Z,39.17
2023-02-07T16:38:06.437Z,39.67
2023-02-07T16:41:33.137Z,32.95
2023-02-07T16:44:37.275Z,31.95
2023-02-07T16:47:40.050Z,36.27
2023-02-07T16:50:43.377Z,35.73
2023-02-07T16:53:46.116Z,39.03
2023-02-07T16:56:51.755Z,33.60
2023-02-07T16:59:54.476Z,40.38
2023-02-07T17:02:58.377Z,53.10
2023-02-07T17:06:01.272Z,60.27
2023-02-07T17:09:04.718Z,72.55
2023-02-07T17:12:09.220Z,72.93
2023-02-07T17:15:12.382Z,88.35
2023-02-07T17:18:15.279Z,94.27
2023-02-07T17:21:18.442Z,91.77
2023-02-07T17:24:21.457Z,89.55
2023-02-07T17:27:24.409Z,88.55
2023-02-07T17:30:38.860Z,74.37
2023-02-07T17:33:41.890Z,56.80
2023-02-07T17:36:47.769Z,50.03
2023-02-07T17:39:54.417Z,48.92
2023-02-07T17:42:57.862Z,64.22
2023-02-07T17:46:01.999Z,69.80
2023-02-07T17:49:06.538Z,66.80
2023-02-07T17:52:15.476Z,67.27
2023-02-07T17:55:21.552Z,75.62
2023-02-07T17:58:24.912Z,84.75
2023-02-07T18:01:28.310Z,97.07
2023-02-07T18:04:31.419Z,91.37
2023-02-07T18:07:34.119Z,95.60
2023-02-07T18:10:39.694Z,85.70
2023-02-07T18:13:46.109Z,89.75
2023-02-07T18:16:49.436Z,86.78
2023-02-07T18:19:52.610Z,84.80
2023-02-07T18:22:57.223Z,85.73
2023-02-07T18:26:00.952Z,107.10
2023-02-07T18:29:04.092Z,91.60
2023-02-07T18:32:08.297Z,83.50
2023-02-07T18:35:12.113Z,85.30
2023-02-07T18:38:15.838Z,91.77
2023-02-07T18:41:23.598Z,90.80
2023-02-07T18:44:27.033Z,120.60
2023-02-07T18:47:31.985Z,118.50
2023-02-07T18:50:35.433Z,125.50
2023-02-07T18:53:39.538Z,131.40
2023-02-07T18:56:42.861Z,144.13
2023-02-07T18:59:45.691Z,149.98
2023-02-07T19:02:49.240Z,137.05
2023-02-07T19:05:57.671Z,135.83
2023-02-07T19:09:03.787Z,133.03
2023-02-07T19:12:09.243Z,138.75
2023-02-07T19:15:13.062Z,134.82
2023-02-07T19:18:16.340Z,159.52
2023-02-07T19:21:24.070Z,147.87
2023-02-07T19:24:27.960Z,136.80
2023-02-07T19:27:30.845Z,128.25
2023-02-07T19:30:34.252Z,132.63
2023-02-07T19:33:37.295Z,138.68
2023-02-07T19:36:41.429Z,132.57
2023-02-07T19:39:46.367Z,122.07
2023-02-07T19:42:49.745Z,118.13
2023-02-07T19:45:53.887Z,126.03
2023-02-07T19:48:58.943Z,129.57
2023-02-07T19:52:01.940Z,142.20
2023-02-07T19:55:05.308Z,140.13
2023-02-07T19:58:08.689Z,127.80
2023-02-07T20:01:12.718Z,136.65
2023-02-07T20:04:15.832Z,137.45
2023-02-07T20:07:19.083Z,147.30
2023-02-07T20:10:22.567Z,135.20
2023-02-07T20:13:25.669Z,130.35
2023-02-07T20:16:31.662Z,133.12
2023-02-07T20:19:35.874Z,152.68
2023-02-07T20:22:39.003Z,171.03
2023-02-07T20:25:42.354Z,150.50
2023-02-07T20:28:46.486Z,153.27
2023-02-07T20:31:50.175Z,188.37
2023-02-07T20:34:53.388Z,210.43
2023-02-07T20:37:57.196Z,200.93
2023-02-07T20:41:08.987Z,206.60
2023-02-07T20:44:14.991Z,207.85
2023-02-07T20:47:18.039Z,192.37
2023-02-07T20:50:22.360Z,193.30
2023-02-07T20:53:25.504Z,178.27
2023-02-07T20:56:29.017Z,185.27
2023-02-07T20:59:33.051Z,193.23
2023-02-07T21:02:37.149Z,216.02
2023-02-07T21:05:40.116Z,201.95
2023-02-07T21:08:43.305Z,213.73
2023-02-07T21:11:49.203Z,265.13
2023-02-07T21:14:52.213Z,274.73
2023-02-07T21:17:54.984Z,276.50
2023-02-07T21:20:58.225Z,287.17
2023-02-07T21:24:01.401Z,272.43
2023-02-07T21:27:05.356Z,266.27
2023-02-07T21:30:09.013Z,244.35
2023-02-07T21:33:15.568Z,254.82
2023-02-07T21:36:25.810Z,241.23
2023-02-07T21:39:28.871Z,235.37
2023-02-07T21:42:32.172Z,227.17
2023-02-07T21:45:35.220Z,226.32
2023-02-07T21:48:39.453Z,212.18
2023-02-07T21:51:43.715Z,203.55
2023-02-07T21:54:46.554Z,197.57
2023-02-07T21:57:49.431Z,206.10
2023-02-07T22:00:55.218Z,194.82
2023-02-07T22:03:59.931Z,180.52
2023-02-07T22:07:02.765Z,185.45
2023-02-07T22:10:05.805Z,197.00
2023-02-07T22:13:12.970Z,182.23
2023-02-07T22:16:17.397Z,180.93
2023-02-07T22:19:21.028Z,202.65
2023-02-07T22:22:23.875Z,190.38
2023-02-07T22:25:26.640Z,185.13
2023-02-07T22:28:30.055Z,190.93
2023-02-07T22:31:35.733Z,195.40
2023-02-07T22:34:41.070Z,212.40
2023-02-07T22:37:43.810Z,210.07
2023-02-07T22:40:46.749Z,209.67
2023-02-07T22:43:49.672Z,213.33
2023-02-07T22:46:52.528Z,207.18
2023-02-07T22:49:55.298Z,198.13
2023-02-07T22:52:58.540Z,205.02
2023-02-07T22:56:02.044Z,191.57
2023-02-07T22:59:05.749Z,194.33
2023-02-07T23:02:08.821Z,192.77
2023-02-07T23:05:12.224Z,175.75
2023-02-07T23:08:14.962Z,180.82
2023-02-07T23:11:19.894Z,157.87
2023-02-07T23:14:22.747Z,151.07
2023-02-07T23:17:26.479Z,151.32
2023-02-07T23:20:29.923Z,171.82
2023-02-07T23:23:32.747Z,159.43
2023-02-07T23:26:35.614Z,134.93
2023-02-07T23:29:40.413Z,114.13
2023-02-07T23:32:43.316Z,110.85
2023-02-07T23:35:46.026Z,90.32
2023-02-07T23:38:49.450Z,90.22
2023-02-07T23:41:52.206Z,81.13
2023-02-07T23:44:54.961Z,87.97
2023-02-07T23:47:58.527Z,87.20
2023-02-07T23:51:03.743Z,91.00
2023-02-07T23:54:06.454Z,89.18
2023-02-07T23:57:09.189Z,89.27
